首页
METAR-TAF:

METAR-TAF

机场 :

苏丹阿末沙机场

关丹, 马来西亚

纬度: 03-37N, 经度: 103-13E, 海拔: 18米

当前天气观测

该预报发布于46分钟前的03:00 UTC
风速10节,风向南转西南,在东南西南之间变化
温度 26°C
湿度 84%
气压 1010 hPa
能见度10公里或以上
少量云层高于2500英尺

METAR: WMKD 220300Z 20010KT 140V230 9999 FEW025 26/23 Q1010 NOSIG

时间: 11:46 (03:46 UTC)


TAF: 丢失

超过4000个机场的气象观测和天气预报(METAR&TAF报告)。

可查询的气象台以黄色和红色小点在地图上表示。

将鼠标移到小点上方,可查看气象台名称。

然后点击查看天气观测和预报。

如需切换地图:点击带黑十字的绿色按钮放大地图;点击带横线的绿色按钮缩小地图;或者点击绿色箭头查看邻近地区的地图。


METAR-TAF: